Time;durP1;ratioP1;P1;durP2;ratioP2;P2;SDS_P1;SDS_P2;PMS_P1;PMS_P2;Temp;Humidity;BMP_temperature;BMP_pressure;BME280_temperature;BME280_humidity;BME280_pressure;Samples;Min_cycle;Max_cycle;Signal;HPM_P1;HPM_P2
2022/07/01 00:00:17;;;;;;;11.55;2.80;;;;;;;17.53;50.48;99754.22;4964897;28;20109;-66
2022/07/01 00:02:43;;;;;;;8.90;2.85;;;;;;;17.42;51.06;99760.03;4965429;28;20538;-67
2022/07/01 00:05:09;;;;;;;8.25;2.78;;;;;;;17.35;51.40;99761.66;4965897;28;20050;-66
2022/07/01 00:07:44;;;;;;;9.00;2.83;;;;;;;17.29;51.57;99772.03;4966013;28;20074;-66
2022/07/01 00:10:12;;;;;;;12.27;2.80;;;;;;;17.31;51.55;99763.44;4966750;28;20556;-66
2022/07/01 00:12:38;;;;;;;9.38;3.00;;;;;;;17.27;51.85;99769.63;4962961;28;20102;-66
2022/07/01 00:15:05;;;;;;;14.80;2.90;;;;;;;17.22;52.11;99766.19;4966731;28;20051;-66
2022/07/01 00:17:31;;;;;;;13.65;3.05;;;;;;;17.23;52.24;99767.81;4964303;28;20057;-65
2022/07/01 00:19:57;;;;;;;13.85;3.45;;;;;;;17.25;52.30;99768.28;4964990;28;20058;-66
2022/07/01 00:22:23;;;;;;;11.35;2.83;;;;;;;17.28;52.04;99765.72;4961935;28;20057;-64
2022/07/01 00:24:49;;;;;;;13.05;2.85;;;;;;;17.27;52.22;99769.63;4964420;28;20046;-64
2022/07/01 00:27:17;;;;;;;11.30;3.25;;;;;;;17.21;52.49;99765.34;4966718;28;20142;-66
2022/07/01 00:29:43;;;;;;;11.50;2.92;;;;;;;17.17;52.61;99761.59;4965573;28;20043;-68
2022/07/01 00:32:09;;;;;;;17.88;3.10;;;;;;;17.13;52.84;99769.72;4965912;28;20046;-66
2022/07/01 00:34:37;;;;;;;11.98;3.05;;;;;;;17.12;53.08;99764.53;4963486;28;20139;-66
2022/07/01 00:37:03;;;;;;;11.80;2.67;;;;;;;17.08;53.25;99767.09;4964265;28;20106;-67
2022/07/01 00:39:34;;;;;;;7.70;2.78;;;;;;;17.08;53.36;99767.09;4975858;28;20068;-67
2022/07/01 00:42:00;;;;;;;13.35;3.05;;;;;;;17.11;53.48;99763.69;4970116;28;20054;-67
2022/07/01 00:44:28;;;;;;;17.15;2.78;;;;;;;17.09;53.19;99765.97;4974989;28;20054;-66
2022/07/01 00:46:56;;;;;;;12.05;3.55;;;;;;;17.05;53.23;99765.00;4983426;28;20046;-66
2022/07/01 00:49:25;;;;;;;11.73;2.97;;;;;;;16.97;53.30;99751.91;4985405;28;20046;-66
2022/07/01 00:51:52;;;;;;;11.93;3.10;;;;;;;16.94;53.46;99756.16;4982956;28;20046;-66
2022/07/01 00:54:19;;;;;;;10.82;3.15;;;;;;;16.91;54.08;99761.50;4997826;28;20502;-66
2022/07/01 00:56:45;;;;;;;14.15;3.10;;;;;;;16.91;53.87;99758.72;4976408;28;20057;-66
2022/07/01 00:59:11;;;;;;;16.50;3.73;;;;;;;16.84;54.05;99757.22;4964694;28;20074;-66
2022/07/01 01:01:39;;;;;;;10.55;2.70;;;;;;;16.87;54.30;99761.31;4966432;28;20059;-67
2022/07/01 01:04:05;;;;;;;9.50;3.50;;;;;;;16.87;54.17;99759.38;4965002;28;20043;-66
2022/07/01 01:06:31;;;;;;;13.40;2.92;;;;;;;16.86;54.18;99757.75;4964563;28;20055;-65
2022/07/01 01:08:57;;;;;;;10.70;3.42;;;;;;;16.84;54.13;99764.72;4966718;28;20142;-66
2022/07/01 01:11:23;;;;;;;9.27;3.25;;;;;;;16.80;54.50;99759.00;4963945;28;20141;-66
2022/07/01 01:13:49;;;;;;;18.40;3.03;;;;;;;16.79;54.57;99765.66;4965072;28;20051;-66
2022/07/01 01:16:17;;;;;;;11.40;3.00;;;;;;;16.76;54.22;99765.47;4961700;28;20157;-66
2022/07/01 01:18:45;;;;;;;7.60;2.97;;;;;;;16.77;54.68;99767.91;4965896;28;20074;-65
2022/07/01 01:21:12;;;;;;;15.10;3.45;;;;;;;16.72;54.73;99777.16;4963793;28;20423;-66
2022/07/01 01:23:39;;;;;;;12.90;3.10;;;;;;;16.71;54.71;99777.47;4965927;28;20051;-65
2022/07/01 01:26:18;;;;;;;12.20;3.40;;;;;;;16.66;54.80;99783.13;4962849;28;20047;-65
2022/07/01 01:28:45;;;;;;;14.43;3.35;;;;;;;16.69;54.94;99777.78;4964673;28;20047;-66
2022/07/01 01:31:11;;;;;;;12.90;2.97;;;;;;;16.65;54.77;99770.44;4961283;28;20059;-66
2022/07/01 01:33:37;;;;;;;14.10;2.95;;;;;;;16.78;54.53;99777.00;4963690;28;20106;-66
2022/07/01 01:36:05;;;;;;;11.77;2.80;;;;;;;16.74;54.37;99776.84;4966020;28;20050;-65
2022/07/01 01:38:34;;;;;;;9.23;2.97;;;;;;;16.76;54.16;99773.75;4965152;28;20052;-66
2022/07/01 01:41:00;;;;;;;14.38;2.78;;;;;;;16.68;54.13;99769.81;4968556;28;20150;-66
2022/07/01 01:43:26;;;;;;;11.70;2.90;;;;;;;16.64;53.92;99772.41;4968533;28;20129;-65
2022/07/01 01:45:52;;;;;;;9.38;2.65;;;;;;;16.63;54.09;99783.75;4970377;28;20101;-65
2022/07/01 01:48:18;;;;;;;8.68;2.75;;;;;;;16.67;54.03;99785.56;4968628;28;20051;-66
2022/07/01 01:50:44;;;;;;;10.52;2.67;;;;;;;16.63;53.85;99792.88;4951768;28;20090;-66
2022/07/01 01:53:10;;;;;;;9.55;3.30;;;;;;;16.65;53.90;99790.59;4967831;28;20142;-66
2022/07/01 01:55:37;;;;;;;15.48;3.10;;;;;;;16.67;53.88;99784.75;4970211;28;20188;-67
2022/07/01 01:58:03;;;;;;;;;;;;;;;16.71;53.48;99783.00;4969262;28;20105;-67
2022/07/01 02:00:29;;;;;;;9.88;2.53;;;;;;;16.70;53.19;99789.63;4968256;28;20394;-67
2022/07/01 02:02:55;;;;;;;8.60;2.58;;;;;;;16.67;53.16;99802.13;4967710;28;20082;-66
2022/07/01 02:05:21;;;;;;;9.75;2.53;;;;;;;16.66;52.89;99788.63;4966825;28;20078;-67
2022/07/01 02:07:47;;;;;;;6.75;2.47;;;;;;;16.64;53.09;99788.97;4969876;28;20526;-67
2022/07/01 02:10:13;;;;;;;8.15;2.35;;;;;;;16.62;53.10;99793.97;4968762;28;20471;-68
2022/07/01 02:12:41;;;;;;;12.13;2.50;;;;;;;16.65;52.73;99801.66;4968681;28;20057;-67
2022/07/01 02:15:08;;;;;;;;;;;;;;;16.64;52.94;99790.91;4966006;28;20117;-67
2022/07/01 02:17:34;;;;;;;7.30;2.17;;;;;;;16.61;53.04;99792.34;4967517;28;19932;-68
2022/07/01 02:20:00;;;;;;;9.05;2.80;;;;;;;16.62;52.86;99799.50;4964783;28;20560;-68
2022/07/01 02:22:26;;;;;;;12.57;2.40;;;;;;;16.60;52.57;99807.28;4965523;28;20050;-67
2022/07/01 02:24:52;;;;;;;12.93;2.53;;;;;;;16.62;52.65;99806.97;4965069;28;20474;-67
2022/07/01 02:27:18;;;;;;;13.70;2.45;;;;;;;16.66;52.40;99807.97;4966413;28;20078;-67
2022/07/01 02:29:46;;;;;;;11.00;2.45;;;;;;;16.66;52.23;99813.47;4968362;28;20175;-66
2022/07/01 02:32:12;;;;;;;11.57;2.53;;;;;;;16.77;52.08;99811.25;4968878;28;20051;-67
2022/07/01 02:34:38;;;;;;;7.80;2.70;;;;;;;16.80;51.76;99819.75;4968036;28;20085;-67
2022/07/01 02:37:04;;;;;;;8.35;2.30;;;;;;;16.77;51.36;99825.91;4969467;28;20067;-66
2022/07/01 02:39:32;;;;;;;11.30;2.78;;;;;;;16.61;51.44;99808.91;4966211;28;20086;-67
2022/07/01 02:44:43;;;;;;;9.43;2.47;;;;;;;16.68;50.66;99831.38;4968056;28;20107;-65
2022/07/01 02:47:11;;;;;;;8.52;2.47;;;;;;;16.69;50.70;99837.69;4965715;28;20452;-65
2022/07/01 02:49:36;;;;;;;;;;;;;;;16.68;50.60;99838.81;4966114;28;20050;-66
2022/07/01 02:52:03;;;;;;;10.48;2.30;;;;;;;16.68;50.44;99847.94;4963409;28;19925;-68
2022/07/01 02:54:29;;;;;;;8.00;2.67;;;;;;;16.69;50.58;99840.44;4967611;28;20038;-66
2022/07/01 02:56:55;;;;;;;9.63;2.22;;;;;;;16.72;50.53;99859.16;4966552;28;20470;-66
2022/07/01 02:59:21;;;;;;;7.57;2.47;;;;;;;16.74;50.08;99854.13;4967140;28;20147;-66
2022/07/01 03:01:47;;;;;;;6.90;2.10;;;;;;;16.77;49.81;99860.97;4947514;28;20059;-66
2022/07/01 03:04:14;;;;;;;11.80;2.85;;;;;;;16.73;49.47;99869.06;4967419;28;20501;-67
2022/07/01 03:06:41;;;;;;;9.55;2.45;;;;;;;16.73;49.34;99863.56;4971610;28;20427;-66
2022/07/01 03:09:07;;;;;;;7.47;2.40;;;;;;;16.71;48.79;99861.09;4968346;28;20051;-66
2022/07/01 03:11:33;;;;;;;7.20;2.20;;;;;;;16.73;48.79;99861.59;4965816;28;20527;-68
2022/07/01 03:13:59;;;;;;;6.85;2.50;;;;;;;16.61;48.39;99844.78;4965291;28;20082;-67
2022/07/01 03:16:25;;;;;;;8.55;2.20;;;;;;;16.81;48.16;99871.06;4966475;28;20061;-67
2022/07/01 03:18:51;;;;;;;9.57;2.13;;;;;;;16.86;48.14;99870.13;4963881;28;20059;-65
2022/07/01 03:21:19;;;;;;;6.05;2.08;;;;;;;16.92;48.25;99870.81;4964044;28;20062;-65
2022/07/01 03:23:45;;;;;;;10.23;2.63;;;;;;;16.93;47.83;99869.69;4967298;28;20058;-66
2022/07/01 03:26:11;;;;;;;5.82;2.20;;;;;;;17.01;47.34;99874.44;4971585;28;20043;-67
2022/07/01 03:28:37;;;;;;;16.85;2.75;;;;;;;17.05;47.10;99878.22;4985807;28;20042;-66
2022/07/01 03:31:03;;;;;;;6.47;1.90;;;;;;;17.10;46.64;99886.38;4983442;28;20060;-66
2022/07/01 03:33:29;;;;;;;7.95;2.30;;;;;;;17.13;46.19;99880.22;4982444;28;20073;-67
2022/07/01 03:35:55;;;;;;;5.88;2.30;;;;;;;17.18;46.42;99870.97;4983092;28;20046;-67
2022/07/01 03:38:22;;;;;;;15.35;2.05;;;;;;;17.21;46.23;99888.88;4984675;28;20430;-66
2022/07/01 03:40:48;;;;;;;9.25;1.90;;;;;;;17.21;45.67;99886.91;4968808;28;20058;-67
2022/07/01 03:43:14;;;;;;;7.75;1.98;;;;;;;17.26;45.62;99884.03;4985061;28;20042;-66
2022/07/01 03:45:41;;;;;;;6.53;2.10;;;;;;;17.27;45.18;99893.13;4982702;28;20053;-68
2022/07/01 03:48:07;;;;;;;7.50;2.05;;;;;;;17.28;45.11;99883.69;4982735;28;20050;-66
2022/07/01 03:50:33;;;;;;;10.43;1.88;;;;;;;17.31;45.35;99890.53;4966883;28;20145;-66
2022/07/01 03:55:45;;;;;;;14.90;1.80;;;;;;;17.44;44.58;99887.66;4987338;28;20075;-66
2022/07/01 03:58:12;;;;;;;10.23;1.92;;;;;;;17.50;44.74;99885.56;4987354;28;20085;-66
2022/07/01 04:00:39;;;;;;;7.28;2.03;;;;;;;17.55;44.47;99893.72;4983844;28;20299;-66
2022/07/01 04:03:06;;;;;;;10.52;2.13;;;;;;;17.61;44.01;99904.63;4987356;28;20050;-66
2022/07/01 04:05:34;;;;;;;13.75;2.03;;;;;;;17.69;43.77;99901.06;4984406;28;20050;-66
2022/07/01 04:08:01;;;;;;;10.13;1.88;;;;;;;17.74;43.09;99902.88;4987796;28;20520;-67
2022/07/01 04:10:27;;;;;;;12.03;2.20;;;;;;;17.77;42.95;99897.53;4986395;28;20423;-66
2022/07/01 04:12:55;;;;;;;8.63;1.60;;;;;;;17.78;41.84;99901.94;4984154;28;20039;-64
2022/07/01 04:15:22;;;;;;;5.28;1.52;;;;;;;17.76;41.06;99898.66;4984076;28;20072;-66
2022/07/01 04:17:49;;;;;;;10.70;2.08;;;;;;;17.77;41.53;99905.00;4985382;28;20050;-66
2022/07/01 04:20:15;;;;;;;5.15;1.73;;;;;;;17.79;41.41;99909.09;4981857;28;20085;-67
2022/07/01 04:22:41;;;;;;;8.95;2.30;;;;;;;17.84;41.83;99908.94;4982997;28;20198;-65
2022/07/01 04:25:08;;;;;;;7.47;1.77;;;;;;;17.89;40.98;99910.72;4981525;28;20062;-67
2022/07/01 04:27:35;;;;;;;8.65;1.95;;;;;;;17.92;40.97;99910.09;4985387;28;20053;-64
2022/07/01 04:30:03;;;;;;;13.20;2.10;;;;;;;17.95;40.52;99919.69;4983023;28;20467;-65
2022/07/01 04:32:30;;;;;;;6.50;1.60;;;;;;;17.96;40.38;99913.84;4983691;28;20100;-66
2022/07/01 04:34:57;;;;;;;5.97;1.77;;;;;;;17.92;40.04;99910.09;4985328;28;20050;-67
2022/07/01 04:37:23;;;;;;;15.17;1.80;;;;;;;17.98;39.68;99913.53;4983233;28;20062;-67
2022/07/01 04:39:50;;;;;;;9.15;1.83;;;;;;;17.98;39.27;99919.88;4982848;28;20093;-66
2022/07/01 04:42:17;;;;;;;15.15;2.58;;;;;;;17.95;39.19;99917.75;4980371;28;20165;-66
2022/07/01 04:44:43;;;;;;;10.13;1.73;;;;;;;17.90;39.51;99922.63;4980338;28;20050;-67
2022/07/01 04:47:11;;;;;;;4.70;1.75;;;;;;;17.92;39.38;99923.91;4982184;28;20054;-66
2022/07/01 04:49:37;;;;;;;9.35;1.98;;;;;;;17.96;40.02;99924.09;4979533;28;20597;-66
2022/07/01 04:52:03;;;;;;;7.80;1.48;;;;;;;18.04;39.88;99928.03;4961839;28;20129;-67
2022/07/01 04:54:29;;;;;;;11.90;1.50;;;;;;;18.09;39.50;99922.34;4982476;28;20133;-66
2022/07/01 04:56:56;;;;;;;6.45;1.58;;;;;;;18.11;39.12;99920.09;4983011;28;20070;-67
2022/07/01 04:59:22;;;;;;;11.10;1.65;;;;;;;18.13;38.47;99926.13;4985235;28;20050;-67
2022/07/01 05:01:51;;;;;;;12.02;1.63;;;;;;;18.16;38.34;99930.19;4979029;28;20569;-67
2022/07/01 05:04:19;;;;;;;10.68;1.80;;;;;;;18.16;38.05;99936.53;4963196;28;20053;-67
2022/07/01 05:06:45;;;;;;;10.65;1.73;;;;;;;18.14;38.04;99934.09;4964451;28;20053;-66
2022/07/01 05:09:12;;;;;;;3.60;1.30;;;;;;;18.10;38.11;99926.75;4962573;28;20113;-66
2022/07/01 05:11:39;;;;;;;12.43;1.45;;;;;;;18.10;38.61;99935.03;4965514;28;20345;-67
2022/07/01 05:14:06;;;;;;;6.63;1.70;;;;;;;18.09;38.67;99942.53;4964868;28;20146;-68
2022/07/01 05:16:32;;;;;;;9.88;1.35;;;;;;;18.04;38.50;99912.28;4967128;28;20306;-66
2022/07/01 05:21:55;;;;;;;5.93;1.48;;;;;;;18.30;38.74;99933.63;4968516;28;20066;-66
2022/07/01 05:24:22;;;;;;;6.63;1.30;;;;;;;18.33;38.28;99937.69;4969030;28;20034;-67
2022/07/01 05:26:48;;;;;;;9.98;1.63;;;;;;;18.36;38.17;99939.81;4966770;28;20236;-67
2022/07/01 05:29:15;;;;;;;5.85;1.73;;;;;;;18.37;38.11;99935.91;4966409;28;20055;-66
2022/07/01 05:31:41;;;;;;;8.25;1.40;;;;;;;18.37;37.87;99933.97;4966983;28;20581;-67
2022/07/01 05:34:07;;;;;;;5.43;1.40;;;;;;;18.38;37.94;99937.53;4967934;28;20312;-67
2022/07/01 05:36:34;;;;;;;7.88;1.67;;;;;;;18.38;38.27;99932.81;4976787;28;20050;-68
2022/07/01 05:39:02;;;;;;;7.88;1.70;;;;;;;18.41;38.39;99939.66;4990165;28;20510;-67
2022/07/01 05:41:28;;;;;;;12.15;1.60;;;;;;;18.40;38.18;99935.25;4970644;28;20042;-67
2022/07/01 05:43:54;;;;;;;8.57;2.08;;;;;;;18.38;37.98;99943.06;4985284;28;20132;-67
2022/07/01 05:46:20;;;;;;;12.73;2.00;;;;;;;18.43;38.53;99945.69;4982917;28;20050;-66
2022/07/01 05:48:46;;;;;;;6.40;1.50;;;;;;;18.49;38.16;99936.09;4986988;28;20584;-72
2022/07/01 05:51:12;;;;;;;7.22;1.77;;;;;;;18.54;38.07;99935.13;4986098;28;20050;-67
2022/07/01 05:53:39;;;;;;;12.18;1.65;;;;;;;18.58;37.51;99940.81;4988592;28;20510;-66
2022/07/01 05:56:06;;;;;;;19.13;2.08;;;;;;;18.63;37.33;99938.69;4986719;28;20049;-66
2022/07/01 05:58:32;;;;;;;22.00;2.15;;;;;;;18.63;36.96;99926.81;4986797;28;20054;-66
2022/07/01 06:00:58;;;;;;;12.20;1.65;;;;;;;18.66;36.66;99918.66;4989170;28;20052;-67
2022/07/01 06:03:25;;;;;;;22.75;2.10;;;;;;;18.68;36.68;99930.22;4988181;28;20046;-67
2022/07/01 06:05:51;;;;;;;8.75;1.70;;;;;;;18.75;36.90;99929.72;4986912;28;20085;-67
2022/07/01 06:08:17;;;;;;;4.20;1.63;;;;;;;18.76;36.71;99931.38;4977905;28;20214;-67
2022/07/01 06:10:43;;;;;;;11.13;1.45;;;;;;;18.74;36.46;99935.59;4982867;28;20086;-67
2022/07/01 06:13:10;;;;;;;6.97;1.80;;;;;;;18.74;36.93;99925.34;4979429;28;20050;-67
2022/07/01 06:15:36;;;;;;;;;;;;;;;18.75;36.48;99926.97;4988410;28;20585;-68
2022/07/01 06:18:02;;;;;;;12.73;1.95;;;;;;;18.64;36.32;99915.38;4978477;28;20026;-67
2022/07/01 06:20:29;;;;;;;8.82;1.70;;;;;;;18.69;36.20;99937.38;4980847;28;20518;-67
2022/07/01 06:22:55;;;;;;;8.50;1.58;;;;;;;18.66;35.87;99940.00;4975486;28;20136;-67
2022/07/01 06:25:21;;;;;;;20.10;1.77;;;;;;;18.61;36.13;99940.16;4622062;28;9999945;-67
2022/07/01 06:27:47;;;;;;;15.75;1.67;;;;;;;18.71;36.14;99940.66;4977918;28;20042;-66
2022/07/01 06:30:15;;;;;;;18.42;2.35;;;;;;;18.83;35.95;99936.41;4978168;28;20510;-67
2022/07/01 06:32:41;;;;;;;19.55;2.10;;;;;;;18.97;35.65;99939.81;4982193;28;20567;-67
2022/07/01 06:35:08;;;;;;;15.00;1.80;;;;;;;19.10;35.55;99951.03;4964107;28;20944;-67
2022/07/01 06:37:36;;;;;;;;;;;;;;;19.31;35.45;99955.91;4978969;28;20038;-67
2022/07/01 06:40:04;;;;;;;25.88;2.78;;;;;;;19.44;34.76;99954.91;4976530;28;20469;-67
2022/07/01 06:42:30;;;;;;;20.63;2.13;;;;;;;19.54;34.56;99943.41;4976792;28;20054;-66
2022/07/01 06:44:56;;;;;;;14.93;1.75;;;;;;;19.66;34.14;99951.03;4977641;28;20050;-67
2022/07/01 06:47:24;;;;;;;7.90;1.35;;;;;;;19.73;32.91;99953.28;4977270;28;20062;-67
2022/07/01 06:49:50;;;;;;;14.30;1.80;;;;;;;19.71;33.04;99952.81;4981338;28;20462;-67
2022/07/01 06:52:16;;;;;;;15.50;1.80;;;;;;;19.73;33.20;99961.59;4997190;28;20426;-66
2022/07/01 06:54:42;;;;;;;10.10;1.60;;;;;;;19.78;31.58;99957.84;4980599;28;20057;-68
2022/07/01 06:57:09;;;;;;;10.55;1.88;;;;;;;19.83;31.33;99955.69;4977270;28;20042;-66
2022/07/01 06:59:35;;;;;;;10.60;2.05;;;;;;;19.94;30.95;99961.72;4977958;28;20095;-68
2022/07/01 07:02:01;;;;;;;13.15;1.60;;;;;;;20.02;30.77;99968.34;4981784;28;20646;-68
2022/07/01 07:04:29;;;;;;;19.70;2.00;;;;;;;20.08;30.18;99960.66;4967398;28;20045;-66
2022/07/01 07:06:54;;;;;;;;;;;;;;;20.10;30.40;99975.00;4977893;28;20144;-67
2022/07/01 07:09:20;;;;;;;9.75;1.80;;;;;;;20.15;30.05;99960.97;4982265;28;20349;-69
2022/07/01 07:11:46;;;;;;;11.68;1.92;;;;;;;20.15;29.43;99969.28;4972372;28;20430;-67
2022/07/01 07:14:13;;;;;;;10.55;1.60;;;;;;;20.26;29.43;99962.16;4982382;28;20093;-68
2022/07/01 07:16:39;;;;;;;16.50;1.48;;;;;;;20.39;29.55;99962.25;4982888;28;20533;-68
2022/07/01 07:19:05;;;;;;;8.00;1.60;;;;;;;20.45;29.39;99958.16;4981131;28;20577;-67
2022/07/01 07:21:32;;;;;;;8.75;1.60;;;;;;;20.51;29.29;99955.94;4981786;28;20093;-67
2022/07/01 07:23:58;;;;;;;11.68;1.50;;;;;;;20.68;29.48;99960.56;4979482;28;20141;-67
2022/07/01 07:26:24;;;;;;;13.13;1.95;;;;;;;20.82;28.93;99963.09;4979691;28;20856;-67
2022/07/01 07:28:51;;;;;;;14.18;1.88;;;;;;;20.93;28.91;99966.28;4978692;28;20045;-67
2022/07/01 07:31:17;;;;;;;17.63;2.47;;;;;;;21.09;27.96;99967.25;4975707;28;20054;-67
2022/07/01 07:33:43;;;;;;;7.30;1.55;;;;;;;21.18;27.95;99958.00;4976208;28;20070;-68
2022/07/01 07:36:09;;;;;;;13.00;1.50;;;;;;;21.23;28.17;99960.59;4979473;28;20058;-68
2022/07/01 07:38:38;;;;;;;9.57;1.60;;;;;;;21.34;27.29;99970.09;4976723;28;20253;-68
2022/07/01 07:41:04;;;;;;;10.95;2.03;;;;;;;21.46;27.41;99971.28;4979074;28;20047;-68
2022/07/01 07:43:30;;;;;;;13.05;2.10;;;;;;;21.61;26.15;99972.56;4980582;28;20549;-67
2022/07/01 07:45:57;;;;;;;17.90;1.70;;;;;;;21.70;25.24;99984.44;4977923;28;20510;-67
2022/07/01 07:48:23;;;;;;;10.73;1.58;;;;;;;21.73;24.84;99989.31;4994529;28;20058;-67
2022/07/01 07:50:49;;;;;;;10.07;1.45;;;;;;;21.65;24.47;99979.09;4976493;28;20046;-67
2022/07/01 07:53:15;;;;;;;21.23;2.40;;;;;;;21.61;24.49;99981.75;4978294;28;20450;-66
2022/07/01 07:55:42;;;;;;;9.13;1.60;;;;;;;21.69;24.71;99993.97;4977546;28;20051;-68
2022/07/01 07:58:09;;;;;;;5.00;1.30;;;;;;;21.66;24.71;99989.88;4981489;28;20541;-67
2022/07/01 08:00:35;;;;;;;5.47;1.50;;;;;;;21.56;24.85;99987.53;4981394;28;20047;-68
2022/07/01 08:03:01;;;;;;;12.15;1.67;;;;;;;21.63;24.27;99998.09;4975897;28;20069;-67
2022/07/01 08:05:28;;;;;;;19.02;1.73;;;;;;;21.67;23.97;99997.06;4979408;28;20053;-68
2022/07/01 08:07:54;;;;;;;9.65;1.90;;;;;;;21.79;24.14;99996.31;4983605;28;20137;-68
2022/07/01 08:10:19;;;;;;;12.40;1.73;;;;;;;22.00;23.89;99998.16;4981903;28;20226;-67
2022/07/01 08:12:47;;;;;;;8.80;1.50;;;;;;;22.09;23.82;100003.59;4979348;28;20556;-68
2022/07/01 08:15:13;;;;;;;10.77;1.55;;;;;;;22.17;23.42;100004.66;4976352;28;20145;-68
2022/07/01 08:17:39;;;;;;;11.70;1.50;;;;;;;22.36;23.17;100002.06;4976849;28;20137;-67
2022/07/01 08:20:07;;;;;;;5.85;1.50;;;;;;;22.62;23.13;100003.69;4977051;28;20054;-67
2022/07/01 08:22:33;;;;;;;10.48;1.67;;;;;;;22.93;22.69;99998.59;4977809;28;20051;-68
2022/07/01 08:24:59;;;;;;;13.75;1.73;;;;;;;23.14;22.52;100005.97;4979072;28;20038;-68
2022/07/01 08:27:25;;;;;;;4.00;1.50;;;;;;;23.44;22.32;100011.97;4976443;28;20406;-67
2022/07/01 08:29:52;;;;;;;10.60;1.98;;;;;;;23.64;21.83;100012.09;4969135;28;20042;-67
2022/07/01 08:32:19;;;;;;;18.83;2.10;;;;;;;23.68;22.04;100013.00;4981787;28;20050;-67
2022/07/01 08:34:45;;;;;;;8.93;1.73;;;;;;;23.91;21.52;100015.97;4981895;28;20639;-67
2022/07/01 08:37:11;;;;;;;4.78;1.40;;;;;;;24.22;20.69;100016.34;4982804;28;20042;-67
2022/07/01 08:39:37;;;;;;;18.60;2.20;;;;;;;24.47;19.66;100027.28;4983684;28;20046;-66
2022/07/01 08:42:06;;;;;;;8.63;1.42;;;;;;;24.51;20.12;100017.00;4277007;28;10000645;-67
2022/07/01 08:44:32;;;;;;;9.68;1.60;;;;;;;24.84;20.22;100024.13;4977059;28;20180;-68
2022/07/01 08:46:59;;;;;;;8.48;1.70;;;;;;;24.97;20.17;100027.56;4971651;28;20570;-66
2022/07/01 08:49:25;;;;;;;6.32;1.75;;;;;;;25.20;19.89;100027.66;4977667;28;20440;-67
2022/07/01 08:51:51;;;;;;;7.85;1.55;;;;;;;25.36;20.01;100021.16;4969962;28;20119;-66
2022/07/01 08:54:18;;;;;;;13.93;1.77;;;;;;;25.53;20.40;100014.31;4973297;28;20046;-68
2022/07/01 08:56:47;;;;;;;9.27;2.00;;;;;;;25.96;19.96;100011.44;4976959;28;20050;-67
2022/07/01 08:59:25;;;;;;;6.60;1.58;;;;;;;26.12;19.57;100010.47;4972429;28;20050;-67
2022/07/01 09:01:56;;;;;;;11.38;1.90;;;;;;;26.30;19.91;100016.41;4970522;28;20046;-66
2022/07/01 09:04:24;;;;;;;7.25;1.80;;;;;;;26.67;19.51;100018.50;4977884;28;20073;-67
2022/07/01 09:06:50;;;;;;;11.45;2.08;;;;;;;27.12;19.37;100024.31;4979023;28;20039;-67
2022/07/01 09:09:19;;;;;;;16.57;1.80;;;;;;;27.54;19.17;100027.19;4977429;28;20044;-69
2022/07/01 09:11:53;;;;;;;9.63;1.60;;;;;;;27.51;19.74;100025.13;4981337;28;20308;-68
2022/07/01 09:14:21;;;;;;;13.85;1.80;;;;;;;27.57;19.80;100016.00;4978165;28;20076;-68
2022/07/01 09:16:48;;;;;;;9.73;1.70;;;;;;;27.38;19.38;100024.59;4990398;28;20152;-68
2022/07/01 09:19:16;;;;;;;15.80;2.30;;;;;;;27.23;17.74;100024.44;4969939;28;20047;-67
2022/07/01 09:21:46;;;;;;;;;;;;;;;26.66;17.39;100016.09;4974385;28;20215;-68
2022/07/01 09:24:28;;;;;;;18.40;1.92;;;;;;;26.45;18.10;100034.22;4969265;28;20598;-68
2022/07/01 09:26:56;;;;;;;7.60;1.85;;;;;;;26.76;17.90;100010.63;4964134;28;20442;-68
2022/07/01 09:29:27;;;;;;;17.65;2.08;;;;;;;26.79;17.47;100023.09;4986363;28;20204;-68
2022/07/01 09:31:53;;;;;;;12.60;2.28;;;;;;;26.67;17.87;100026.91;4975932;28;20104;-68
2022/07/01 09:34:20;;;;;;;5.28;1.60;;;;;;;26.77;17.97;100028.25;4977074;28;20043;-68
2022/07/01 09:36:54;;;;;;;7.20;2.10;;;;;;;27.14;17.90;100033.16;4980752;28;20070;-68
2022/07/01 09:39:20;;;;;;;12.35;2.00;;;;;;;27.24;17.37;100022.44;4979059;28;20066;-68
2022/07/01 09:41:46;;;;;;;6.90;1.80;;;;;;;27.55;17.18;100015.59;4974305;28;20050;-68
2022/07/01 09:44:12;;;;;;;9.73;1.90;;;;;;;27.95;17.16;100029.97;4977983;28;20057;-68
2022/07/01 09:46:51;;;;;;;7.20;1.87;;;;;;;28.14;17.49;100019.69;4982579;28;20054;-67
2022/07/01 09:49:18;;;;;;;11.25;2.20;;;;;;;28.48;17.12;100024.34;4976231;28;20093;-67
2022/07/01 09:51:44;;;;;;;16.50;2.50;;;;;;;28.50;16.43;100019.97;4974581;28;20135;-66
2022/07/01 09:54:12;;;;;;;10.02;1.88;;;;;;;28.43;15.99;100034.78;4966592;28;21106;-67
2022/07/01 09:56:38;;;;;;;11.68;2.08;;;;;;;28.64;16.04;100027.66;4981820;28;20061;-66
2022/07/01 09:59:04;;;;;;;11.98;1.95;;;;;;;29.18;15.20;100024.28;4972917;28;20114;-68
2022/07/01 10:01:32;;;;;;;14.10;2.20;;;;;;;29.26;14.44;100030.75;4976166;28;20501;-67
2022/07/01 10:04:00;;;;;;;6.75;1.80;;;;;;;29.32;14.32;100025.53;4979149;28;20047;-66
2022/07/01 10:06:51;;;;;;;5.13;1.70;;;;;;;29.38;14.05;100024.75;4961951;28;20051;-68
2022/07/01 10:09:43;;;;;;;5.10;1.80;;;;;;;29.75;14.12;100036.09;4980399;28;20046;-66
2022/07/01 10:12:33;;;;;;;4.50;1.90;;;;;;;30.23;13.41;100029.28;4981867;28;20183;-67
2022/07/01 10:15:00;;;;;;;5.53;1.88;;;;;;;30.47;13.43;100041.72;4983798;28;20526;-66
2022/07/01 10:17:28;;;;;;;6.40;2.20;;;;;;;30.60;14.35;100025.19;4983006;28;20039;-66
2022/07/01 10:19:55;;;;;;;10.98;2.10;;;;;;;30.73;14.67;100030.38;4984108;28;20457;-68
2022/07/01 10:22:27;;;;;;;10.85;2.25;;;;;;;30.56;14.70;100032.81;4983820;28;20065;-66
2022/07/01 10:24:54;;;;;;;17.52;2.20;;;;;;;30.92;14.67;100037.59;4977282;28;20046;-68
2022/07/01 10:27:22;;;;;;;14.82;2.50;;;;;;;30.79;14.21;100034.41;4964817;28;20046;-67
2022/07/01 10:29:49;;;;;;;9.50;2.17;;;;;;;30.54;14.49;100024.78;4990273;28;20078;-66
2022/07/01 10:32:29;;;;;;;15.57;2.60;;;;;;;30.49;14.79;100030.81;4973728;28;20061;-68
2022/07/01 10:35:04;;;;;;;9.48;2.10;;;;;;;30.51;15.34;100036.84;4984388;28;20069;-68
2022/07/01 10:37:30;;;;;;;4.75;2.03;;;;;;;30.80;15.26;100030.38;4983989;28;20055;-67
2022/07/01 10:40:00;;;;;;;6.00;2.30;;;;;;;31.04;14.79;100030.66;4979433;28;20487;-67
2022/07/01 10:42:30;;;;;;;7.00;2.38;;;;;;;31.18;14.75;100018.50;4973455;28;20046;-66
2022/07/01 10:45:03;;;;;;;16.50;2.58;;;;;;;31.56;14.18;100035.66;4983016;28;20054;-68
2022/07/01 10:47:30;;;;;;;13.32;2.50;;;;;;;31.39;14.57;100034.56;4982333;28;20054;-67
2022/07/01 10:50:04;;;;;;;8.15;2.28;;;;;;;31.19;14.86;100035.03;4979088;28;20646;-69
2022/07/01 10:52:30;;;;;;;19.95;2.35;;;;;;;31.07;14.29;100033.47;4977346;28;20046;-67
2022/07/01 10:55:00;;;;;;;17.63;3.17;;;;;;;31.10;14.69;100020.56;4972761;28;20043;-67
2022/07/01 10:57:29;;;;;;;10.00;2.30;;;;;;;31.54;14.07;100027.59;4967609;28;20233;-67
2022/07/01 11:00:18;;;;;;;10.70;2.33;;;;;;;31.54;13.58;100021.97;4977133;28;20043;-68
2022/07/01 11:02:44;;;;;;;7.97;2.50;;;;;;;31.74;13.67;100014.94;4971867;28;20046;-65
2022/07/01 11:05:12;;;;;;;12.13;2.38;;;;;;;32.02;12.95;100022.41;4977131;28;20540;-65
2022/07/01 11:07:42;;;;;;;10.60;2.50;;;;;;;32.51;13.35;100010.25;4967568;28;20046;-67
2022/07/01 11:10:11;;;;;;;13.85;2.67;;;;;;;33.04;13.27;100019.31;4974911;28;20076;-66
2022/07/01 11:12:38;;;;;;;9.48;2.80;;;;;;;33.47;13.07;100026.44;4972222;28;20062;-67
2022/07/01 11:15:06;;;;;;;9.38;2.42;;;;;;;33.71;12.32;100025.66;4979183;28;20051;-66
2022/07/01 11:17:33;;;;;;;15.80;3.13;;;;;;;33.38;11.99;100004.28;4983060;28;20196;-66
2022/07/01 11:20:02;;;;;;;16.80;2.80;;;;;;;32.88;12.27;100010.63;4948812;28;20418;-66
2022/07/01 11:22:32;;;;;;;15.73;2.40;;;;;;;32.43;12.83;100026.50;4995932;28;20069;-67
2022/07/01 11:25:01;;;;;;;9.77;2.38;;;;;;;32.70;12.29;100022.16;4976139;28;20556;-67
2022/07/01 11:27:30;;;;;;;8.38;2.50;;;;;;;32.78;12.80;100024.47;4982216;28;20090;-67
2022/07/01 11:29:58;;;;;;;18.10;2.70;;;;;;;33.32;12.56;100019.34;4984130;28;20505;-69
2022/07/01 11:32:25;;;;;;;11.30;2.85;;;;;;;33.29;11.75;100023.03;4977395;28;20054;-67
2022/07/01 11:34:51;;;;;;;13.50;2.60;;;;;;;33.23;11.97;100023.50;4975786;28;20125;-66
2022/07/01 11:40:07;;;;;;;12.75;2.70;;;;;;;33.61;10.87;100016.91;4987366;28;20106;-67